MSC Fortunate — 3FLG6 — position and weather

sailwx.info

Track history (hours):
 
Tides and Currents Weather Stations Pressure Air Temp Water Temp Dewpoint Dewpoint Depression Visibility Wind Speed Wind Dir Waves Ship Positions

MSC Fortunate

Last reported at 2014-Nov-23 00:29 UTC. Time now 2014-Nov-26 18:23 UTC.
Position N 32°55' E 034°53'.

Length 275 m; draft 13.7 m.

Type: Ship. MMSI: 356708000.

Date/timePositionNaut miles runAvg speedWind from/ knotsBaromVisibWave heightAir tempDewpointWater temp
2014-Nov-23 00:29N 32°55' E 034°53'1414.7
2014-Nov-22 23:33N 32°56' E 034°37'  
2014-Nov-15 13:34N 36°28' E 014°18'1918.6
2014-Nov-15 12:31N 36°33' E 013°55'2718.6
2014-Nov-15 11:04N 36°40' E 013°22'8618.3
2014-Nov-15 06:22N 37°08' E 011°41'1619.1
2014-Nov-15 05:34N 37°16' E 011°24'2019.2
2014-Nov-15 04:31N 37°24' E 011°01'1919.5
2014-Nov-15 03:34N 37°29' E 010°38'2019.8
2014-Nov-15 02:33N 37°33' E 010°14'2019.7
2014-Nov-15 01:33N 37°34' E 009°49'3919.3
2014-Nov-14 23:33N 37°36' E 009°01'2618.5
2014-Nov-14 22:09N 37°33' E 008°28'1218.7
2014-Nov-14 21:31N 37°32' E 008°13'2118.7
2014-Nov-14 20:23N 37°29' E 007°46'63119.2
2014-Nov-13 11:34N 36°04' W 005°15'4 4.0
2014-Nov-13 10:33N 36°02' W 005°18'  
Track history (hours):
 
Tides and Currents Weather Stations Pressure Air Temp Water Temp Dewpoint Dewpoint Depression Visibility Wind Speed Wind Dir Waves Ship Positions

MSC Fortunate

Last reported at 2014-Nov-23 00:29 UTC. Time now 2014-Nov-26 18:23 UTC.
Position N 32°55' E 034°53'.

Length 275 m; draft 13.7 m.

Type: Ship. MMSI: 356708000.

Date/timePositionNaut miles runAvg speedWind from/ knotsBaromVisibWave heightAir tempDewpointWater temp
2014-Nov-23 00:29N 32°55' E 034°53'1414.7
2014-Nov-22 23:33N 32°56' E 034°37'  
2014-Nov-15 13:34N 36°28' E 014°18'1918.6
2014-Nov-15 12:31N 36°33' E 013°55'2718.6
2014-Nov-15 11:04N 36°40' E 013°22'8618.3
2014-Nov-15 06:22N 37°08' E 011°41'1619.1
2014-Nov-15 05:34N 37°16' E 011°24'2019.2
2014-Nov-15 04:31N 37°24' E 011°01'1919.5
2014-Nov-15 03:34N 37°29' E 010°38'2019.8
2014-Nov-15 02:33N 37°33' E 010°14'2019.7
2014-Nov-15 01:33N 37°34' E 009°49'3919.3
2014-Nov-14 23:33N 37°36' E 009°01'2618.5
2014-Nov-14 22:09N 37°33' E 008°28'1218.7
2014-Nov-14 21:31N 37°32' E 008°13'2118.7
2014-Nov-14 20:23N 37°29' E 007°46'63119.2
2014-Nov-13 11:34N 36°04' W 005°15'4 4.0
2014-Nov-13 10:33N 36°02' W 005°18'  

Dump ship's entire track history